createdAt,value
2019-04-04T00:00:20.487Z,93912.8
2019-04-04T00:01:22.644Z,93911.6
2019-04-04T00:02:25.077Z,93913.6
2019-04-04T00:03:27.248Z,93914.1
2019-04-04T00:04:29.684Z,93917.2
2019-04-04T00:05:32.120Z,93914.9
2019-04-04T00:06:34.560Z,93917.6
2019-04-04T00:07:36.720Z,93918.3
2019-04-04T00:08:39.150Z,93918.7
2019-04-04T00:09:41.320Z,93915.4
2019-04-04T00:10:43.746Z,93913.3
2019-04-04T00:11:46.184Z,93906.1
2019-04-04T00:12:48.639Z,93906.3
2019-04-04T00:13:51.089Z,93903.4
2019-04-04T00:14:53.524Z,93899.8
2019-04-04T00:15:55.666Z,93900.6
2019-04-04T00:16:58.107Z,93890.1
2019-04-04T00:18:00.551Z,93890.4
2019-04-04T00:19:03.012Z,93897.1
2019-04-04T00:20:05.434Z,93889.7
2019-04-04T00:21:08.422Z,93892
2019-04-04T00:22:10.870Z,93890.3
2019-04-04T00:23:13.022Z,93892.3
2019-04-04T00:24:15.451Z,93890.8
2019-04-04T00:25:17.613Z,93889.4
2019-04-04T00:26:20.046Z,93880.2
2019-04-04T00:27:21.927Z,93878.7
2019-04-04T00:28:23.806Z,93868.3
2019-04-04T00:29:25.974Z,93866.2
2019-04-04T00:30:28.399Z,93860.6
2019-04-04T00:31:30.320Z,93867
2019-04-04T00:32:32.728Z,93862.9
2019-04-04T00:33:35.167Z,93862.5
2019-04-04T00:34:37.588Z,93859.7
2019-04-04T00:35:40.017Z,93853.6
2019-04-04T00:36:41.964Z,93853.5
2019-04-04T00:37:44.410Z,93858.3
2019-04-04T00:38:46.836Z,93857.3
2019-04-04T00:39:49.284Z,93851.2
2019-04-04T00:42:00.339Z,93837.3
2019-04-04T00:43:02.783Z,93847.6
2019-04-04T00:44:05.019Z,93843.4
2019-04-04T00:45:07.465Z,93838
2019-04-04T00:46:09.349Z,93836.1
2019-04-04T00:47:11.529Z,93830.3
2019-04-04T00:48:13.405Z,93824.9
2019-04-04T00:49:15.849Z,93828.9
2019-04-04T00:50:18.274Z,93823.7
2019-04-04T00:51:20.422Z,93815.9
2019-04-04T00:52:22.874Z,93808.7
2019-04-04T00:53:24.758Z,93809
2019-04-04T00:54:27.186Z,93804.3
2019-04-04T00:55:29.608Z,93805.3
2019-04-04T00:56:32.040Z,93804.1
2019-04-04T00:57:34.194Z,93806.7
2019-04-04T00:58:36.630Z,93812.8
2019-04-04T00:59:39.065Z,93807.9
2019-04-04T01:00:41.514Z,93809.9
2019-04-04T01:01:43.940Z,93810.4
2019-04-04T01:02:46.112Z,93806.2
2019-04-04T01:03:48.268Z,93800.6
2019-04-04T01:04:50.698Z,93793.8
2019-04-04T01:05:53.151Z,93790
2019-04-04T01:06:54.731Z,93792.8
2019-04-04T01:07:56.890Z,93788.4
2019-04-04T01:08:59.037Z,93794.4
2019-04-04T01:10:01.478Z,93798.5
2019-04-04T01:11:03.917Z,93800.8
2019-04-04T01:12:06.351Z,93795
2019-04-04T01:13:08.489Z,93792.3
2019-04-04T01:14:10.642Z,93793.1
2019-04-04T01:15:13.060Z,93792.7
2019-04-04T01:16:15.484Z,93795.2
2019-04-04T01:17:17.909Z,93794.3
2019-04-04T01:18:20.325Z,93796.8
2019-04-04T01:19:22.494Z,93795.1
2019-04-04T01:20:25.020Z,93792.6
2019-04-04T01:21:27.452Z,93787.5
2019-04-04T01:22:29.879Z,93789.7
2019-04-04T01:23:32.310Z,93780
2019-04-04T01:24:34.458Z,93780.8
2019-04-04T01:25:36.626Z,93779.7
2019-04-04T01:26:39.050Z,93787.9
2019-04-04T01:27:41.195Z,93787.8
2019-04-04T01:28:43.374Z,93784.4
2019-04-04T01:29:45.510Z,93791.9
2019-04-04T01:30:47.935Z,93788.6
2019-04-04T01:31:50.348Z,93789.5
2019-04-04T01:32:52.559Z,93787.2
2019-04-04T01:33:54.997Z,93786.5
2019-04-04T01:34:57.172Z,93781.5
2019-04-04T01:35:59.342Z,93782.5
2019-04-04T01:37:01.775Z,93780.2
2019-04-04T01:38:04.207Z,93783.8
2019-04-04T01:39:06.635Z,93782.1
2019-04-04T01:40:08.790Z,93778.1
2019-04-04T01:41:11.208Z,93781.3
2019-04-04T01:42:13.428Z,93772.5
2019-04-04T01:43:15.842Z,93776.1
2019-04-04T01:44:18.271Z,93769.2
2019-04-04T01:45:20.707Z,93771.1
2019-04-04T01:46:22.843Z,93772.8
2019-04-04T01:47:25.024Z,93772.7
2019-04-04T01:48:27.466Z,93775.8
2019-04-04T01:49:29.607Z,93771.4
2019-04-04T01:50:32.024Z,93767.5
2019-04-04T01:51:34.468Z,93759.8
2019-04-04T01:52:36.966Z,93761.8
2019-04-04T01:53:39.115Z,93760.6
2019-04-04T01:54:41.260Z,93757.9
2019-04-04T01:55:43.410Z,93761.6
2019-04-04T01:56:45.860Z,93760.3
2019-04-04T01:57:48.308Z,93763.3
2019-04-04T01:58:50.756Z,93757.6
2019-04-04T01:59:52.900Z,93756.2
2019-04-04T02:00:55.350Z,93748.1
2019-04-04T02:01:57.799Z,93747.7
2019-04-04T02:03:00.221Z,93746.3
2019-04-04T02:04:02.664Z,93744.3
2019-04-04T02:05:05.098Z,93741.3
2019-04-04T02:06:06.978Z,93742.3
2019-04-04T02:07:09.202Z,93737.1
2019-04-04T02:08:11.639Z,93741.5
2019-04-04T02:09:14.065Z,93747.3
2019-04-04T02:10:16.485Z,93749.1
2019-04-04T02:11:18.913Z,93748
2019-04-04T02:12:21.345Z,93744.8
2019-04-04T02:13:23.903Z,93738.5
2019-04-04T02:14:26.082Z,93733.4
2019-04-04T02:15:28.511Z,93731
2019-04-04T02:16:30.388Z,93737.6
2019-04-04T02:17:32.546Z,93740.4
2019-04-04T02:18:33.865Z,93733.9
2019-04-04T02:19:36.296Z,93731.6
2019-04-04T02:20:38.803Z,93728
2019-04-04T02:21:40.942Z,93726.4
2019-04-04T02:22:42.826Z,93724.3
2019-04-04T02:23:45.261Z,93721.1
2019-04-04T02:24:47.417Z,93721.4
2019-04-04T02:25:49.860Z,93715.1
2019-04-04T02:26:52.296Z,93713.5
2019-04-04T02:27:54.732Z,93713.3
2019-04-04T02:28:56.879Z,93714.7
2019-04-04T02:29:59.048Z,93706.8
2019-04-04T02:31:01.481Z,93708.7
2019-04-04T02:32:03.910Z,93713.5
2019-04-04T02:33:06.328Z,93707.1
2019-04-04T02:34:08.768Z,93710.1
2019-04-04T02:35:12.664Z,93699.7
2019-04-04T02:39:30.046Z,93696.6
2019-04-04T02:40:32.475Z,93688.1
2019-04-04T02:41:34.939Z,93686.7
2019-04-04T02:42:37.377Z,93683.8
2019-04-04T02:43:39.856Z,93681.1
2019-04-04T02:44:42.306Z,93678.8
2019-04-04T02:45:44.179Z,93680.4
2019-04-04T02:46:47.287Z,93679.8
2019-04-04T02:52:24.099Z,93676.2
2019-04-04T02:53:26.327Z,93679.1
2019-04-04T02:54:28.793Z,93681.1
2019-04-04T02:55:32.284Z,93679.5
2019-04-04T03:00:59.088Z,93661.4
2019-04-04T03:08:31.399Z,93650.2
2019-04-04T03:09:33.557Z,93654.1
2019-04-04T03:10:35.995Z,93655.8
2019-04-04T03:11:38.144Z,93652.8
2019-04-04T03:12:40.589Z,93650.2
2019-04-04T03:13:43.016Z,93646.1
2019-04-04T03:14:44.934Z,93644.3
2019-04-04T03:17:57.742Z,93640.9
2019-04-04T03:19:00.176Z,93635.9
2019-04-04T03:20:02.641Z,93633.1
2019-04-04T03:21:04.806Z,93632.9
2019-04-04T03:22:06.687Z,93624.1
2019-04-04T03:23:08.846Z,93616.1
2019-04-04T03:24:11.059Z,93608.3
2019-04-04T03:30:39.174Z,93607
2019-04-04T03:31:41.764Z,93607.9
2019-04-04T03:33:49.674Z,93589.7
2019-04-04T03:34:53.248Z,93594.7
2019-04-04T03:35:57.526Z,93590.7
2019-04-04T03:38:08.255Z,93586.5
2019-04-04T03:42:31.925Z,93589.1
2019-04-04T03:43:34.367Z,93578.8
2019-04-04T03:44:36.558Z,93578.9
2019-04-04T03:45:38.996Z,93574.8
2019-04-04T03:46:40.904Z,93578.2
2019-04-04T03:52:04.577Z,93553.7
2019-04-04T03:53:06.747Z,93552.6
2019-04-04T03:54:08.894Z,93554.7
2019-04-04T03:55:11.320Z,93553.6
2019-04-04T03:56:13.765Z,93555.4
2019-04-04T03:57:15.898Z,93560.9
2019-04-04T03:58:18.037Z,93554.5
2019-04-04T03:59:20.481Z,93558.1
2019-04-04T04:00:22.907Z,93541.3
2019-04-04T04:01:25.124Z,93544.6
2019-04-04T04:02:27.279Z,93550.7
2019-04-04T04:03:29.469Z,93544.8
2019-04-04T04:04:31.910Z,93538.6
2019-04-04T04:08:53.409Z,93537.4
2019-04-04T04:13:15.858Z,93526.5
2019-04-04T04:15:23.814Z,93510.8
2019-04-04T04:16:34.742Z,93512.9
2019-04-04T04:17:37.689Z,93513.8
2019-04-04T04:18:40.120Z,93511.4
2019-04-04T04:19:42.557Z,93512.8
2019-04-04T04:20:44.991Z,93513.5
2019-04-04T04:21:47.161Z,93506.5
2019-04-04T04:29:21.604Z,93503.9
2019-04-04T04:30:24.033Z,93507.1
2019-04-04T04:31:26.460Z,93506.8
2019-04-04T04:32:28.628Z,93506.6
2019-04-04T04:33:31.540Z,93498.3
2019-04-04T04:34:35.573Z,93497.8
2019-04-04T04:36:42.981Z,93493.4
2019-04-04T04:39:59.858Z,93488.1
2019-04-04T04:41:02.020Z,93483.1
2019-04-04T04:42:04.471Z,93485.5
2019-04-04T04:43:06.709Z,93483.7
2019-04-04T04:44:09.179Z,93480.1
2019-04-04T04:45:13.725Z,93479.3
2019-04-04T04:52:48.694Z,93470
2019-04-04T04:53:52.661Z,93467.9
2019-04-04T04:54:56.823Z,93465
2019-04-04T04:57:06.177Z,93473.2
2019-04-04T04:59:15.006Z,93463
2019-04-04T05:00:18.098Z,93458.7
2019-04-04T05:01:20.674Z,93460.1
2019-04-04T05:02:23.970Z,93458.1
2019-04-04T05:03:26.346Z,93457.1
2019-04-04T05:04:29.760Z,93455.9
2019-04-04T05:05:33.437Z,93455.5
2019-04-04T05:06:37.712Z,93454.2
2019-04-04T05:07:40.593Z,93450
2019-04-04T05:08:42.834Z,93441.2
2019-04-04T05:09:46.395Z,93441
2019-04-04T05:10:48.819Z,93447.3
2019-04-04T05:11:51.997Z,93447.5
2019-04-04T05:12:55.216Z,93436
2019-04-04T05:15:03.660Z,93434.9
2019-04-04T05:17:11.767Z,93435.8
2019-04-04T05:19:20.468Z,93439
2019-04-04T05:22:32.908Z,93422.5
2019-04-04T05:23:35.065Z,93424.3
2019-04-04T05:24:37.505Z,93424.5
2019-04-04T05:26:44.627Z,93417.1
2019-04-04T05:27:46.794Z,93410.6
2019-04-04T05:28:49.239Z,93404.1
2019-04-04T05:29:51.658Z,93405.5
2019-04-04T05:30:54.163Z,93404.5
2019-04-04T05:31:56.354Z,93404.1
2019-04-04T05:32:58.508Z,93400.7
2019-04-04T05:34:01.297Z,93390.9
2019-04-04T05:35:03.752Z,93384.9
2019-04-04T05:36:07.327Z,93379.4
2019-04-04T05:37:09.519Z,93386.1
2019-04-04T05:44:43.448Z,93372.3
2019-04-04T05:45:47.234Z,93375.1
2019-04-04T05:50:04.607Z,93367.9
2019-04-04T05:51:06.769Z,93363.3
2019-04-04T05:52:10.677Z,93363.8
2019-04-04T05:53:12.862Z,93360.5
2019-04-04T05:54:15.295Z,93362.3
2019-04-04T05:55:16.940Z,93360.2
2019-04-04T05:56:19.497Z,93361.1
2019-04-04T05:57:22.256Z,93357.9
2019-04-04T05:58:24.680Z,93352.3
2019-04-04T05:59:27.128Z,93348.3
2019-04-04T06:00:29.488Z,93347.2
2019-04-04T06:02:37.885Z,93329.9
2019-04-04T06:03:40.327Z,93323.7
2019-04-04T06:04:42.765Z,93338.2
2019-04-04T06:05:45.209Z,93332.8
2019-04-04T06:06:47.645Z,93324.4
2019-04-04T06:07:50.086Z,93318
2019-04-04T06:08:52.533Z,93324.4
2019-04-04T06:09:54.970Z,93324.8
2019-04-04T06:10:57.396Z,93317.4
2019-04-04T06:11:59.540Z,93315.3
2019-04-04T06:13:01.976Z,93315.4
2019-04-04T06:14:04.407Z,93322.7
2019-04-04T06:15:06.310Z,93314.9
2019-04-04T06:16:08.735Z,93315.4
2019-04-04T06:17:10.897Z,93318.7
2019-04-04T06:18:13.220Z,93308.8
2019-04-04T06:19:16.462Z,93319.4
2019-04-04T06:20:18.887Z,93314.1
2019-04-04T06:21:21.315Z,93300.8
2019-04-04T06:22:23.769Z,93299.9
2019-04-04T06:23:27.147Z,93293.7
2019-04-04T06:24:29.441Z,93290.8
2019-04-04T06:27:42.419Z,93287.7
2019-04-04T06:28:46.139Z,93281.2
2019-04-04T06:29:49.708Z,93282
2019-04-04T06:36:19.377Z,93275
2019-04-04T06:37:22.153Z,93284.6
2019-04-04T06:38:25.370Z,93273.8
2019-04-04T06:39:27.527Z,93264.9
2019-04-04T06:40:31.979Z,93262.5
2019-04-04T06:41:34.428Z,93268.6
2019-04-04T06:42:38.357Z,93263
2019-04-04T06:44:45.910Z,93260.8
2019-04-04T06:45:49.024Z,93260.6
2019-04-04T06:47:59.265Z,93249.9
2019-04-04T06:53:23.565Z,93247.1
2019-04-04T06:54:27.647Z,93245.8
2019-04-04T06:55:30.926Z,93246.7
2019-04-04T06:56:33.729Z,93246.8
2019-04-04T06:58:42.151Z,93248.7
2019-04-04T06:59:45.428Z,93239.2
2019-04-04T07:01:54.017Z,93247.5
2019-04-04T07:02:57.455Z,93247.7
2019-04-04T07:04:01.246Z,93237.4
2019-04-04T07:05:10.222Z,93236
2019-04-04T07:06:13.742Z,93237.9
2019-04-04T07:07:15.872Z,93240.9
2019-04-04T07:08:18.304Z,93245.8
2019-04-04T07:09:20.768Z,93247.5
2019-04-04T07:10:23.554Z,93241
2019-04-04T07:11:25.997Z,93243.8
2019-04-04T07:12:29.821Z,93240.3
2019-04-04T07:16:47.378Z,93247.4
2019-04-04T07:17:49.797Z,93244.5
2019-04-04T07:18:52.230Z,93246.4
2019-04-04T07:19:54.387Z,93251
2019-04-04T07:20:56.818Z,93247.1
2019-04-04T07:21:58.698Z,93243.6
2019-04-04T07:23:01.127Z,93250.2
2019-04-04T07:24:03.580Z,93248.5
2019-04-04T07:25:07.956Z,93250.8
2019-04-04T07:27:17.854Z,93246.2
2019-04-04T07:28:20.868Z,93251.5
2019-04-04T07:30:30.537Z,93253.3
2019-04-04T07:33:44.726Z,93255.3
2019-04-04T07:34:47.425Z,93250.5
2019-04-04T07:35:50.883Z,93249.9
2019-04-04T07:36:53.075Z,93251.3
2019-04-04T07:39:02.348Z,93256
2019-04-04T07:40:05.965Z,93254.2
2019-04-04T07:41:10.326Z,93252.3
2019-04-04T07:44:25.308Z,93256.7
2019-04-04T07:45:28.111Z,93255.7
2019-04-04T07:46:30.265Z,93261.7
2019-04-04T07:47:32.697Z,93257.5
2019-04-04T07:48:35.131Z,93253.9
2019-04-04T07:49:40.050Z,93253.7
2019-04-04T07:50:43.695Z,93257.2
2019-04-04T07:51:45.845Z,93253.2
2019-04-04T07:52:48.008Z,93254.4
2019-04-04T07:53:50.438Z,93250
2019-04-04T07:54:52.873Z,93253.2
2019-04-04T07:55:55.309Z,93255.8
2019-04-04T07:56:57.723Z,93250
2019-04-04T07:57:59.870Z,93248.7
2019-04-04T07:59:02.306Z,93254.9
2019-04-04T08:00:04.760Z,93255.1
2019-04-04T08:01:07.208Z,93256.6
2019-04-04T08:02:09.643Z,93253.9
2019-04-04T08:03:11.799Z,93249.8
2019-04-04T08:04:14.228Z,93246.7
2019-04-04T08:05:16.389Z,93245
2019-04-04T08:06:18.558Z,93246.9
2019-04-04T08:07:20.987Z,93255.3
2019-04-04T08:08:23.157Z,93259.8
2019-04-04T08:10:29.999Z,93254.9
2019-04-04T08:11:31.888Z,93250.3
2019-04-04T08:12:34.054Z,93251.3
2019-04-04T08:13:36.534Z,93248.4
2019-04-04T08:14:38.969Z,93251.7
2019-04-04T08:15:41.408Z,93256.6
2019-04-04T08:16:43.843Z,93257.9
2019-04-04T08:17:46.002Z,93253.9
2019-04-04T08:18:48.437Z,93258.8
2019-04-04T08:20:55.585Z,93262.8
2019-04-04T08:21:57.869Z,93256.1
2019-04-04T08:23:00.309Z,93253.9
2019-04-04T08:24:02.737Z,93256.1
2019-04-04T08:25:04.898Z,93254.4
2019-04-04T08:26:09.929Z,93252.3
2019-04-04T08:27:13.758Z,93250.7
2019-04-04T08:28:16.195Z,93243.8
2019-04-04T08:29:18.628Z,93249.2
2019-04-04T08:30:21.088Z,93257.1
2019-04-04T08:31:23.292Z,93259.5
2019-04-04T08:32:25.739Z,93257.5
2019-04-04T08:33:28.173Z,93259.5
2019-04-04T08:34:30.637Z,93254.2
2019-04-04T08:35:33.060Z,93259
2019-04-04T08:36:37.045Z,93262.1
2019-04-04T08:37:39.206Z,93263.3
2019-04-04T08:38:41.633Z,93264
2019-04-04T08:39:43.512Z,93270.5
2019-04-04T08:40:47.543Z,93271.9
2019-04-04T08:42:55.657Z,93282.9
2019-04-04T08:43:57.816Z,93287.4
2019-04-04T08:44:59.985Z,93288
2019-04-04T08:46:02.185Z,93294.1
2019-04-04T08:47:04.408Z,93299.1
2019-04-04T08:48:06.833Z,93299.5
2019-04-04T08:49:08.976Z,93300.4
2019-04-04T08:50:11.407Z,93303.4
2019-04-04T08:51:13.843Z,93304.1
2019-04-04T08:53:21.248Z,93306.1
2019-04-04T08:54:23.684Z,93310.3
2019-04-04T08:55:26.108Z,93313.1
2019-04-04T08:56:28.539Z,93317.6
2019-04-04T08:57:30.980Z,93318.9
2019-04-04T08:58:33.405Z,93319
2019-04-04T08:59:35.622Z,93315.7
2019-04-04T09:00:37.779Z,93326.2
2019-04-04T09:01:40.209Z,93333.4
2019-04-04T09:02:42.655Z,93336.5
2019-04-04T09:03:44.829Z,93346.5
2019-04-04T09:04:47.262Z,93345.5
2019-04-04T09:05:49.707Z,93345.6
2019-04-04T09:06:51.857Z,93352.6
2019-04-04T09:07:54.286Z,93356.3
2019-04-04T09:08:56.438Z,93360.9
2019-04-04T09:09:58.865Z,93363.8
2019-04-04T09:11:01.288Z,93365.6
2019-04-04T09:12:03.445Z,93363.7
2019-04-04T09:13:05.888Z,93366.6
2019-04-04T09:14:08.316Z,93370.6
2019-04-04T09:15:10.577Z,93371.3
2019-04-04T09:16:13.097Z,93380.1
2019-04-04T09:17:15.257Z,93383.3
2019-04-04T09:18:17.687Z,93377.9
2019-04-04T09:19:20.132Z,93383.7
2019-04-04T09:20:22.563Z,93386.4
2019-04-04T09:21:24.694Z,93393.8
2019-04-04T09:22:26.846Z,93386.4
2019-04-04T09:23:29.307Z,93386.1
2019-04-04T09:24:31.758Z,93384.4
2019-04-04T09:25:33.639Z,93381.8
2019-04-04T09:26:36.097Z,93385
2019-04-04T09:27:38.539Z,93383.6
2019-04-04T09:28:40.683Z,93382.2
2019-04-04T09:29:43.120Z,93381.2
2019-04-04T09:30:45.561Z,93385.6
2019-04-04T09:31:47.994Z,93380.9
2019-04-04T09:32:50.155Z,93379.1
2019-04-04T09:33:52.284Z,93378.8
2019-04-04T09:34:54.787Z,93389.2
2019-04-04T09:35:57.218Z,93383.5
2019-04-04T09:36:59.659Z,93392.9
2019-04-04T09:38:02.093Z,93393.6
2019-04-04T09:39:03.999Z,93390.5
2019-04-04T09:40:06.157Z,93390.6
2019-04-04T09:41:08.589Z,93393.9
2019-04-04T09:42:11.019Z,93401.4
2019-04-04T09:43:13.201Z,93402.1
2019-04-04T09:44:15.637Z,93399.3
2019-04-04T09:45:17.814Z,93396
2019-04-04T09:46:20.252Z,93392.3
2019-04-04T09:47:22.426Z,93390.9
2019-04-04T09:48:24.601Z,93394.1
2019-04-04T09:49:27.033Z,93399.4
2019-04-04T09:50:29.219Z,93394.1
2019-04-04T09:51:31.353Z,93403.6
2019-04-04T09:52:33.779Z,93400.4
2019-04-04T09:54:42.189Z,93392.5
2019-04-04T09:55:44.647Z,93401.6
2019-04-04T09:56:47.088Z,93393.1
2019-04-04T09:57:49.536Z,93391.7
2019-04-04T09:58:54.625Z,93390.6
2019-04-04T09:59:58.091Z,93388.7
2019-04-04T10:01:00.248Z,93390.5
2019-04-04T10:02:02.392Z,93391.1
2019-04-04T10:03:04.610Z,93401.5
2019-04-04T10:04:06.764Z,93397.8
2019-04-04T10:05:08.923Z,93402.8
2019-04-04T10:06:11.369Z,93403.2
2019-04-04T10:07:13.822Z,93405.3
2019-04-04T10:08:15.980Z,93403.3
2019-04-04T10:09:18.326Z,93406.2
2019-04-04T10:10:20.757Z,93409.1
2019-04-04T10:11:23.189Z,93407.4
2019-04-04T10:12:25.633Z,93408.9
2019-04-04T10:13:27.841Z,93405.9
2019-04-04T10:14:30.287Z,93409.5
2019-04-04T10:15:32.731Z,93404.5
2019-04-04T10:16:34.866Z,93410.9
2019-04-04T10:17:37.047Z,93409.8
2019-04-04T10:18:39.481Z,93417.8
2019-04-04T10:19:41.358Z,93421
2019-04-04T10:20:43.522Z,93417.9
2019-04-04T10:21:45.969Z,93415.2
2019-04-04T10:22:48.495Z,93414.1
2019-04-04T10:23:50.961Z,93408.2
2019-04-04T10:24:53.139Z,93412.6
2019-04-04T10:25:55.385Z,93407.5
2019-04-04T10:26:57.817Z,93407.1
2019-04-04T10:27:59.989Z,93414.2
2019-04-04T10:29:02.165Z,93407.1
2019-04-04T10:30:04.598Z,93408.9
2019-04-04T10:31:07.026Z,93417.2
2019-04-04T10:32:09.463Z,93421.7
2019-04-04T10:33:11.908Z,93427.9
2019-04-04T10:34:14.079Z,93427.9
2019-04-04T10:35:16.520Z,93428.9
2019-04-04T10:36:18.965Z,93423.3
2019-04-04T10:37:21.396Z,93419
2019-04-04T10:38:23.568Z,93415.8
2019-04-04T10:40:30.706Z,93429.1
2019-04-04T10:41:32.876Z,93425.3
2019-04-04T10:42:35.326Z,93431.4
2019-04-04T10:43:37.742Z,93431.8
2019-04-04T10:44:40.203Z,93429.8
2019-04-04T10:45:42.368Z,93431
2019-04-04T10:46:44.541Z,93440.9
2019-04-04T10:47:46.973Z,93438.4
2019-04-04T10:48:49.148Z,93436.7
2019-04-04T10:49:50.737Z,93438.7
2019-04-04T10:50:52.910Z,93439.2
2019-04-04T10:51:55.084Z,93438.5
2019-04-04T10:52:57.525Z,93445.3
2019-04-04T10:53:59.956Z,93443.1
2019-04-04T10:55:03.204Z,93444
2019-04-04T10:56:05.642Z,93450.2
2019-04-04T10:57:07.533Z,93447
2019-04-04T10:58:09.983Z,93443.2
2019-04-04T10:59:12.140Z,93438.5
2019-04-04T11:00:14.599Z,93433.6
2019-04-04T11:01:17.060Z,93436.5
2019-04-04T11:02:19.547Z,93431.3
2019-04-04T11:03:21.973Z,93434.5
2019-04-04T11:04:24.425Z,93426.5
2019-04-04T11:05:26.301Z,93426
2019-04-04T11:06:28.728Z,93426.8
2019-04-04T11:07:30.888Z,93427.1
2019-04-04T11:08:33.049Z,93434.3
2019-04-04T11:10:40.468Z,93424.3
2019-04-04T11:11:42.894Z,93419.4
2019-04-04T11:12:45.329Z,93419.9
2019-04-04T11:13:47.757Z,93420.8
2019-04-04T11:14:50.200Z,93420.3
2019-04-04T11:15:52.628Z,93416.2
2019-04-04T11:16:54.765Z,93419.8
2019-04-04T11:17:57.198Z,93423.3
2019-04-04T11:18:59.677Z,93423.8
2019-04-04T11:20:02.159Z,93424.1
2019-04-04T11:21:04.304Z,93416
2019-04-04T11:22:06.447Z,93419.3
2019-04-04T11:23:08.597Z,93415.6
2019-04-04T11:24:10.757Z,93408.1
2019-04-04T11:25:13.200Z,93409.1
2019-04-04T11:26:15.650Z,93410
2019-04-04T11:27:18.859Z,93410.7
2019-04-04T11:28:21.031Z,93413
2019-04-04T11:29:23.457Z,93414
2019-04-04T11:30:25.891Z,93413.9
2019-04-04T11:31:28.319Z,93406.6
2019-04-04T11:32:30.759Z,93412.5
2019-04-04T11:33:33.200Z,93413.9
2019-04-04T11:34:35.627Z,93415.2
2019-04-04T11:35:38.046Z,93411.4
2019-04-04T11:36:40.480Z,93409.3
2019-04-04T11:37:42.612Z,93409
2019-04-04T11:38:45.798Z,93409.2
2019-04-04T11:40:53.265Z,93413.6
2019-04-04T11:41:55.705Z,93407
2019-04-04T11:42:57.598Z,93408.2
2019-04-04T11:44:00.114Z,93404.8
2019-04-04T11:45:02.606Z,93405.1
2019-04-04T11:46:05.037Z,93408.8
2019-04-04T11:47:06.901Z,93406.4
2019-04-04T11:48:09.326Z,93407.8
2019-04-04T11:49:11.195Z,93412
2019-04-04T11:50:13.098Z,93418.2
2019-04-04T11:51:15.511Z,93418.1
2019-04-04T11:52:17.668Z,93422.8
2019-04-04T11:53:20.120Z,93412.9
2019-04-04T11:54:22.566Z,93417.8
2019-04-04T11:55:24.724Z,93415.1
2019-04-04T11:56:27.154Z,93417.3
2019-04-04T11:57:29.641Z,93419.1
2019-04-04T11:58:32.098Z,93417.6
2019-04-04T11:59:34.519Z,93422.7
2019-04-04T12:00:36.953Z,93421.6
2019-04-04T12:01:38.828Z,93422.6
2019-04-04T12:02:41.259Z,93423
2019-04-04T12:03:43.687Z,93410.8
2019-04-04T12:04:45.856Z,93410.4
2019-04-04T12:05:48.009Z,93405.9
2019-04-04T12:06:50.460Z,93404.6
2019-04-04T12:07:52.890Z,93403.3
2019-04-04T12:08:55.071Z,93400
2019-04-04T12:11:02.251Z,93399.8
2019-04-04T12:12:04.689Z,93400.5
2019-04-04T12:13:07.135Z,93393.3
2019-04-04T12:14:09.566Z,93399.6
2019-04-04T12:15:11.996Z,93399.7
2019-04-04T12:16:14.436Z,93398.9
2019-04-04T12:17:16.589Z,93403.1
2019-04-04T12:18:18.727Z,93407.6
2019-04-04T12:19:21.161Z,93405.8
2019-04-04T12:20:23.319Z,93409.1
2019-04-04T12:21:25.471Z,93412.3
2019-04-04T12:22:27.681Z,93409.4
2019-04-04T12:23:30.112Z,93407.7
2019-04-04T12:24:32.259Z,93409.7
2019-04-04T12:25:34.428Z,93409
2019-04-04T12:26:36.876Z,93412.9
2019-04-04T12:27:39.032Z,93413.1
2019-04-04T12:28:41.461Z,93414.5
2019-04-04T12:29:43.888Z,93416.4
2019-04-04T12:30:46.038Z,93407.4
2019-04-04T12:31:48.469Z,93411.7
2019-04-04T12:32:51.035Z,93408.4
2019-04-04T12:33:53.459Z,93412.9
2019-04-04T12:34:55.888Z,93415.9
2019-04-04T12:35:58.319Z,93415
2019-04-04T12:37:00.485Z,93417.9
2019-04-04T12:38:02.949Z,93415
2019-04-04T12:39:05.381Z,93421
2019-04-04T12:41:12.800Z,93416.9
2019-04-04T12:42:14.991Z,93417.5
2019-04-04T12:43:17.430Z,93418.2
2019-04-04T12:44:19.858Z,93419
2019-04-04T12:45:22.295Z,93416.8
2019-04-04T12:46:24.744Z,93414.2
2019-04-04T12:47:26.920Z,93421.7
2019-04-04T12:48:29.358Z,93418.7
2019-04-04T12:49:31.817Z,93422.9
2019-04-04T12:50:34.241Z,93427.1
2019-04-04T12:51:36.681Z,93426.8
2019-04-04T12:52:39.170Z,93420.5
2019-04-04T12:53:41.611Z,93430.5
2019-04-04T12:54:43.839Z,93432.7
2019-04-04T12:55:46.009Z,93433.1
2019-04-04T12:56:48.437Z,93436
2019-04-04T12:57:50.871Z,93433.4
2019-04-04T12:58:53.020Z,93440.3
2019-04-04T12:59:55.191Z,93440.9
2019-04-04T13:00:57.635Z,93441.5
2019-04-04T13:02:00.098Z,93437.6
2019-04-04T13:03:02.638Z,93437.6
2019-04-04T13:04:05.133Z,93433.3
2019-04-04T13:05:07.575Z,93439.6
2019-04-04T13:06:09.781Z,93442.6
2019-04-04T13:07:11.929Z,93438.9
2019-04-04T13:08:14.437Z,93440.2
2019-04-04T13:09:16.886Z,93444.8
2019-04-04T13:10:19.059Z,93452.4
2019-04-04T13:11:25.957Z,93457.4
2019-04-04T13:12:28.137Z,93466.4
2019-04-04T13:13:30.665Z,93473.6
2019-04-04T13:14:33.095Z,93473.4
2019-04-04T13:15:35.531Z,93476.5
2019-04-04T13:16:37.967Z,93480.8
2019-04-04T13:17:40.404Z,93483.2
2019-04-04T13:18:42.538Z,93482.8
2019-04-04T13:19:44.978Z,93487.5
2019-04-04T13:20:47.417Z,93489.8
2019-04-04T13:21:49.838Z,93491.9
2019-04-04T13:22:51.999Z,93500.4
2019-04-04T13:23:54.454Z,93498.8
2019-04-04T13:24:56.598Z,93508.9
2019-04-04T13:25:59.037Z,93514.5
2019-04-04T13:27:01.180Z,93519.9
2019-04-04T13:28:03.334Z,93522.4
2019-04-04T13:29:05.764Z,93525.7
2019-04-04T13:30:07.945Z,93540.4
2019-04-04T13:31:10.105Z,93536.5
2019-04-04T13:32:12.550Z,93545.7
2019-04-04T13:33:14.996Z,93542
2019-04-04T13:34:17.136Z,93544.5
2019-04-04T13:35:19.322Z,93543.6
2019-04-04T13:36:21.758Z,93547.8
2019-04-04T13:37:24.190Z,93540.6
2019-04-04T13:38:26.618Z,93530.7
2019-04-04T13:39:29.056Z,93543.8
2019-04-04T13:40:31.488Z,93538.9
2019-04-04T13:41:38.407Z,93540.3
2019-04-04T13:42:40.599Z,93548.5
2019-04-04T13:43:43.061Z,93552.3
2019-04-04T13:44:46.544Z,93550.2
2019-04-04T13:45:48.979Z,93551.7
2019-04-04T13:46:50.881Z,93564.7
2019-04-04T13:47:53.330Z,93573.2
2019-04-04T13:48:55.779Z,93580.3
2019-04-04T13:49:58.280Z,93580.9
2019-04-04T13:51:00.741Z,93579.8
2019-04-04T13:52:03.578Z,93584.4
2019-04-04T13:53:06.061Z,93577.4
2019-04-04T13:54:08.497Z,93586
2019-04-04T13:55:10.953Z,93569.3
2019-04-04T13:56:13.423Z,93576.9
2019-04-04T13:57:15.862Z,93578.3
2019-04-04T13:59:25.089Z,93581.2
2019-04-04T14:00:27.508Z,93577.9
2019-04-04T14:01:29.670Z,93579.5
2019-04-04T14:02:31.532Z,93583.6
2019-04-04T14:03:33.959Z,93587.7
2019-04-04T14:04:36.411Z,93598.5
2019-04-04T14:05:38.841Z,93600.8
2019-04-04T14:06:41.010Z,93602.5
2019-04-04T14:07:45.319Z,93610.5
2019-04-04T14:08:47.451Z,93613.5
2019-04-04T14:09:49.877Z,93612.1
2019-04-04T14:11:57.290Z,93623.2
2019-04-04T14:12:59.712Z,93630.2
2019-04-04T14:14:01.859Z,93623.2
2019-04-04T14:15:04.804Z,93621.8
2019-04-04T14:16:07.239Z,93627.2
2019-04-04T14:17:09.668Z,93627.7
2019-04-04T14:18:11.822Z,93640.2
2019-04-04T14:19:13.698Z,93635.9
2019-04-04T14:20:15.849Z,93635.7
2019-04-04T14:21:18.287Z,93638.6
2019-04-04T14:22:20.449Z,93634.4
2019-04-04T14:23:23.449Z,93636.9
2019-04-04T14:24:25.598Z,93639.7
2019-04-04T14:26:33.592Z,93655.7
2019-04-04T14:27:35.737Z,93653.1
2019-04-04T14:28:37.859Z,93663.1
2019-04-04T14:29:41.055Z,93658.8
2019-04-04T14:30:43.210Z,93660.2
2019-04-04T14:31:45.367Z,93657.9
2019-04-04T14:32:47.244Z,93660.9
2019-04-04T14:33:49.136Z,93661.3
2019-04-04T14:34:51.575Z,93666.8
2019-04-04T14:35:53.727Z,93660.1
2019-04-04T14:36:55.941Z,93664.6
2019-04-04T14:37:58.398Z,93662.8
2019-04-04T14:39:00.838Z,93660.2
2019-04-04T14:40:03.208Z,93672.1
2019-04-04T14:42:10.640Z,93684.5
2019-04-04T14:43:13.064Z,93683.6